sensor_id;sensor_type;location;lat;lon;timestamp;P1;durP1;ratioP1;P2;durP2;ratioP2
26936;SDS011;14495;48.116;11.676;2022-10-17T00:01:03;7.57;;;2.28;;
26936;SDS011;14495;48.116;11.676;2022-10-17T00:03:29;3.72;;;2.10;;
26936;SDS011;14495;48.116;11.676;2022-10-17T00:05:55;3.85;;;2.10;;
26936;SDS011;14495;48.116;11.676;2022-10-17T00:08:20;6.72;;;1.90;;
26936;SDS011;14495;48.116;11.676;2022-10-17T00:10:54;5.80;;;1.95;;
26936;SDS011;14495;48.116;11.676;2022-10-17T00:13:21;5.63;;;1.70;;
26936;SDS011;14495;48.116;11.676;2022-10-17T00:15:46;3.55;;;2.15;;
26936;SDS011;14495;48.116;11.676;2022-10-17T00:18:11;3.50;;;2.03;;
26936;SDS011;14495;48.116;11.676;2022-10-17T00:20:36;3.28;;;1.75;;
26936;SDS011;14495;48.116;11.676;2022-10-17T00:23:02;3.83;;;2.70;;
26936;SDS011;14495;48.116;11.676;2022-10-17T00:25:27;2.20;;;1.60;;
26936;SDS011;14495;48.116;11.676;2022-10-17T00:27:53;3.78;;;2.03;;
26936;SDS011;14495;48.116;11.676;2022-10-17T00:30:18;3.35;;;2.03;;
26936;SDS011;14495;48.116;11.676;2022-10-17T00:32:43;2.35;;;1.80;;
26936;SDS011;14495;48.116;11.676;2022-10-17T00:35:09;6.85;;;1.90;;
26936;SDS011;14495;48.116;11.676;2022-10-17T00:37:34;2.67;;;1.92;;
26936;SDS011;14495;48.116;11.676;2022-10-17T00:40:00;4.45;;;2.20;;
26936;SDS011;14495;48.116;11.676;2022-10-17T00:42:26;2.83;;;1.75;;
26936;SDS011;14495;48.116;11.676;2022-10-17T00:45:26;2.13;;;1.60;;
26936;SDS011;14495;48.116;11.676;2022-10-17T00:47:55;4.03;;;1.55;;
26936;SDS011;14495;48.116;11.676;2022-10-17T00:50:24;2.47;;;1.65;;
26936;SDS011;14495;48.116;11.676;2022-10-17T00:52:51;1.85;;;1.45;;
26936;SDS011;14495;48.116;11.676;2022-10-17T00:55:19;2.35;;;1.58;;
26936;SDS011;14495;48.116;11.676;2022-10-17T00:57:53;3.05;;;1.90;;
26936;SDS011;14495;48.116;11.676;2022-10-17T01:00:18;4.55;;;1.80;;
26936;SDS011;14495;48.116;11.676;2022-10-17T01:02:44;3.20;;;1.52;;
26936;SDS011;14495;48.116;11.676;2022-10-17T01:05:10;3.00;;;1.90;;
26936;SDS011;14495;48.116;11.676;2022-10-17T01:07:36;3.25;;;2.00;;
26936;SDS011;14495;48.116;11.676;2022-10-17T01:10:04;2.83;;;2.10;;
26936;SDS011;14495;48.116;11.676;2022-10-17T01:12:34;4.35;;;1.80;;
26936;SDS011;14495;48.116;11.676;2022-10-17T01:18:12;3.70;;;1.83;;
26936;SDS011;14495;48.116;11.676;2022-10-17T01:39:52;5.53;;;2.22;;
26936;SDS011;14495;48.116;11.676;2022-10-17T01:45:07;3.30;;;2.08;;
26936;SDS011;14495;48.116;11.676;2022-10-17T01:47:38;3.67;;;1.98;;
26936;SDS011;14495;48.116;11.676;2022-10-17T01:50:16;2.78;;;1.80;;
26936;SDS011;14495;48.116;11.676;2022-10-17T01:52:49;2.40;;;1.90;;
26936;SDS011;14495;48.116;11.676;2022-10-17T01:55:19;1.63;;;1.38;;
26936;SDS011;14495;48.116;11.676;2022-10-17T01:57:55;3.55;;;2.10;;
26936;SDS011;14495;48.116;11.676;2022-10-17T02:00:24;3.10;;;2.03;;
26936;SDS011;14495;48.116;11.676;2022-10-17T02:02:52;2.67;;;1.48;;
26936;SDS011;14495;48.116;11.676;2022-10-17T02:05:23;4.85;;;2.00;;
26936;SDS011;14495;48.116;11.676;2022-10-17T02:07:52;10.80;;;1.60;;
26936;SDS011;14495;48.116;11.676;2022-10-17T02:10:20;1.98;;;1.73;;
26936;SDS011;14495;48.116;11.676;2022-10-17T02:21:06;2.00;;;1.60;;
26936;SDS011;14495;48.116;11.676;2022-10-17T02:26:25;2.45;;;1.38;;
26936;SDS011;14495;48.116;11.676;2022-10-17T02:31:43;1.73;;;1.20;;
26936;SDS011;14495;48.116;11.676;2022-10-17T02:34:16;1.88;;;1.30;;
26936;SDS011;14495;48.116;11.676;2022-10-17T02:36:55;2.55;;;1.35;;
26936;SDS011;14495;48.116;11.676;2022-10-17T02:39:26;2.75;;;1.25;;
26936;SDS011;14495;48.116;11.676;2022-10-17T02:41:54;2.45;;;1.75;;
26936;SDS011;14495;48.116;11.676;2022-10-17T02:44:23;4.05;;;1.73;;
26936;SDS011;14495;48.116;11.676;2022-10-17T02:46:53;4.03;;;1.60;;
26936;SDS011;14495;48.116;11.676;2022-10-17T02:49:27;2.50;;;1.55;;
26936;SDS011;14495;48.116;11.676;2022-10-17T02:52:00;8.68;;;2.00;;
26936;SDS011;14495;48.116;11.676;2022-10-17T02:59:43;2.28;;;1.50;;
26936;SDS011;14495;48.116;11.676;2022-10-17T03:02:09;7.90;;;1.88;;
26936;SDS011;14495;48.116;11.676;2022-10-17T03:04:35;3.05;;;1.40;;
26936;SDS011;14495;48.116;11.676;2022-10-17T03:07:01;1.95;;;1.48;;
26936;SDS011;14495;48.116;11.676;2022-10-17T03:09:27;2.05;;;1.50;;
26936;SDS011;14495;48.116;11.676;2022-10-17T03:11:52;4.88;;;1.50;;
26936;SDS011;14495;48.116;11.676;2022-10-17T03:14:18;1.55;;;1.23;;
26936;SDS011;14495;48.116;11.676;2022-10-17T03:16:43;2.78;;;1.60;;
26936;SDS011;14495;48.116;11.676;2022-10-17T03:19:08;4.10;;;1.42;;
26936;SDS011;14495;48.116;11.676;2022-10-17T03:21:34;3.00;;;1.30;;
26936;SDS011;14495;48.116;11.676;2022-10-17T03:24:01;4.80;;;1.40;;
26936;SDS011;14495;48.116;11.676;2022-10-17T03:26:27;2.85;;;1.65;;
26936;SDS011;14495;48.116;11.676;2022-10-17T03:28:53;4.68;;;1.63;;
26936;SDS011;14495;48.116;11.676;2022-10-17T03:31:19;1.92;;;1.42;;
26936;SDS011;14495;48.116;11.676;2022-10-17T03:33:45;3.20;;;1.70;;
26936;SDS011;14495;48.116;11.676;2022-10-17T03:36:11;2.95;;;1.25;;
26936;SDS011;14495;48.116;11.676;2022-10-17T03:38:38;3.13;;;1.80;;
26936;SDS011;14495;48.116;11.676;2022-10-17T03:41:05;1.77;;;1.55;;
26936;SDS011;14495;48.116;11.676;2022-10-17T03:43:31;2.67;;;1.80;;
26936;SDS011;14495;48.116;11.676;2022-10-17T03:45:57;2.58;;;1.30;;
26936;SDS011;14495;48.116;11.676;2022-10-17T03:48:23;6.40;;;1.40;;
26936;SDS011;14495;48.116;11.676;2022-10-17T03:50:50;2.67;;;1.42;;
26936;SDS011;14495;48.116;11.676;2022-10-17T03:53:15;2.28;;;1.33;;
26936;SDS011;14495;48.116;11.676;2022-10-17T03:55:41;2.78;;;1.75;;
26936;SDS011;14495;48.116;11.676;2022-10-17T03:58:06;4.72;;;1.45;;
26936;SDS011;14495;48.116;11.676;2022-10-17T04:00:32;2.53;;;1.25;;
26936;SDS011;14495;48.116;11.676;2022-10-17T04:02:59;2.72;;;1.67;;
26936;SDS011;14495;48.116;11.676;2022-10-17T04:05:25;3.63;;;1.50;;
26936;SDS011;14495;48.116;11.676;2022-10-17T04:07:50;2.88;;;1.40;;
26936;SDS011;14495;48.116;11.676;2022-10-17T04:10:15;4.97;;;1.73;;
26936;SDS011;14495;48.116;11.676;2022-10-17T04:12:41;6.63;;;1.67;;
26936;SDS011;14495;48.116;11.676;2022-10-17T04:15:06;5.20;;;1.67;;
26936;SDS011;14495;48.116;11.676;2022-10-17T04:17:32;2.50;;;1.63;;
26936;SDS011;14495;48.116;11.676;2022-10-17T04:19:57;2.50;;;1.85;;
26936;SDS011;14495;48.116;11.676;2022-10-17T04:22:22;2.13;;;1.58;;
26936;SDS011;14495;48.116;11.676;2022-10-17T04:24:48;1.80;;;1.20;;
26936;SDS011;14495;48.116;11.676;2022-10-17T04:27:13;1.88;;;1.30;;
26936;SDS011;14495;48.116;11.676;2022-10-17T04:29:38;6.03;;;1.63;;
26936;SDS011;14495;48.116;11.676;2022-10-17T04:32:04;2.90;;;1.27;;
26936;SDS011;14495;48.116;11.676;2022-10-17T04:34:29;5.18;;;1.60;;
26936;SDS011;14495;48.116;11.676;2022-10-17T04:36:55;2.03;;;1.52;;
26936;SDS011;14495;48.116;11.676;2022-10-17T04:39:20;2.35;;;1.52;;
26936;SDS011;14495;48.116;11.676;2022-10-17T04:41:45;4.85;;;1.60;;
26936;SDS011;14495;48.116;11.676;2022-10-17T04:44:10;2.30;;;1.60;;
26936;SDS011;14495;48.116;11.676;2022-10-17T04:46:36;2.00;;;1.40;;
26936;SDS011;14495;48.116;11.676;2022-10-17T04:49:01;1.95;;;1.38;;
26936;SDS011;14495;48.116;11.676;2022-10-17T04:51:27;3.72;;;1.70;;
26936;SDS011;14495;48.116;11.676;2022-10-17T04:53:52;4.13;;;2.13;;
26936;SDS011;14495;48.116;11.676;2022-10-17T04:56:18;2.75;;;2.05;;
26936;SDS011;14495;48.116;11.676;2022-10-17T04:58:45;3.33;;;1.83;;
26936;SDS011;14495;48.116;11.676;2022-10-17T05:01:12;4.65;;;1.98;;
26936;SDS011;14495;48.116;11.676;2022-10-17T05:03:40;2.40;;;1.70;;
26936;SDS011;14495;48.116;11.676;2022-10-17T05:06:22;3.97;;;1.90;;
26936;SDS011;14495;48.116;11.676;2022-10-17T05:08:49;3.45;;;1.70;;
26936;SDS011;14495;48.116;11.676;2022-10-17T05:11:18;3.38;;;2.25;;
26936;SDS011;14495;48.116;11.676;2022-10-17T05:13:52;2.72;;;1.60;;
26936;SDS011;14495;48.116;11.676;2022-10-17T05:16:19;3.75;;;1.67;;
26936;SDS011;14495;48.116;11.676;2022-10-17T05:18:52;9.85;;;1.95;;
26936;SDS011;14495;48.116;11.676;2022-10-17T05:21:20;6.53;;;2.22;;
26936;SDS011;14495;48.116;11.676;2022-10-17T05:23:47;3.42;;;2.00;;
26936;SDS011;14495;48.116;11.676;2022-10-17T05:26:13;3.15;;;1.90;;
26936;SDS011;14495;48.116;11.676;2022-10-17T05:28:38;3.38;;;1.50;;
26936;SDS011;14495;48.116;11.676;2022-10-17T05:31:04;2.10;;;1.45;;
26936;SDS011;14495;48.116;11.676;2022-10-17T05:33:31;8.30;;;1.80;;
26936;SDS011;14495;48.116;11.676;2022-10-17T05:35:56;2.90;;;1.67;;
26936;SDS011;14495;48.116;11.676;2022-10-17T05:38:22;4.85;;;1.48;;
26936;SDS011;14495;48.116;11.676;2022-10-17T05:40:48;2.45;;;1.42;;
26936;SDS011;14495;48.116;11.676;2022-10-17T05:43:13;7.72;;;1.65;;
26936;SDS011;14495;48.116;11.676;2022-10-17T05:45:39;3.55;;;1.80;;
26936;SDS011;14495;48.116;11.676;2022-10-17T05:48:04;3.13;;;1.45;;
26936;SDS011;14495;48.116;11.676;2022-10-17T05:50:30;4.70;;;1.60;;
26936;SDS011;14495;48.116;11.676;2022-10-17T05:52:55;3.30;;;1.70;;
26936;SDS011;14495;48.116;11.676;2022-10-17T05:55:21;4.65;;;1.95;;
26936;SDS011;14495;48.116;11.676;2022-10-17T05:57:47;5.15;;;2.13;;
26936;SDS011;14495;48.116;11.676;2022-10-17T06:00:12;3.53;;;1.77;;
26936;SDS011;14495;48.116;11.676;2022-10-17T06:02:38;5.57;;;2.00;;
26936;SDS011;14495;48.116;11.676;2022-10-17T06:05:03;3.30;;;2.17;;
26936;SDS011;14495;48.116;11.676;2022-10-17T06:07:28;2.92;;;1.55;;
26936;SDS011;14495;48.116;11.676;2022-10-17T06:09:54;2.55;;;1.63;;
26936;SDS011;14495;48.116;11.676;2022-10-17T06:12:19;3.38;;;2.08;;
26936;SDS011;14495;48.116;11.676;2022-10-17T06:14:44;4.90;;;1.88;;
26936;SDS011;14495;48.116;11.676;2022-10-17T06:17:10;5.60;;;1.52;;
26936;SDS011;14495;48.116;11.676;2022-10-17T06:19:35;3.05;;;1.60;;
26936;SDS011;14495;48.116;11.676;2022-10-17T06:22:00;7.75;;;1.90;;
26936;SDS011;14495;48.116;11.676;2022-10-17T06:24:26;3.22;;;1.65;;
26936;SDS011;14495;48.116;11.676;2022-10-17T06:26:51;4.50;;;1.88;;
26936;SDS011;14495;48.116;11.676;2022-10-17T06:29:17;5.88;;;1.67;;
26936;SDS011;14495;48.116;11.676;2022-10-17T06:31:42;2.83;;;1.52;;
26936;SDS011;14495;48.116;11.676;2022-10-17T06:34:08;4.30;;;1.60;;
26936;SDS011;14495;48.116;11.676;2022-10-17T06:36:33;4.22;;;1.40;;
26936;SDS011;14495;48.116;11.676;2022-10-17T06:39:01;2.58;;;1.58;;
26936;SDS011;14495;48.116;11.676;2022-10-17T06:41:27;2.70;;;2.00;;
26936;SDS011;14495;48.116;11.676;2022-10-17T06:43:52;3.25;;;2.00;;
26936;SDS011;14495;48.116;11.676;2022-10-17T06:46:18;3.72;;;2.00;;
26936;SDS011;14495;48.116;11.676;2022-10-17T06:48:43;4.07;;;2.15;;
26936;SDS011;14495;48.116;11.676;2022-10-17T06:51:09;5.28;;;2.17;;
26936;SDS011;14495;48.116;11.676;2022-10-17T06:53:36;2.72;;;1.52;;
26936;SDS011;14495;48.116;11.676;2022-10-17T06:56:02;3.17;;;1.58;;
26936;SDS011;14495;48.116;11.676;2022-10-17T06:58:29;3.00;;;1.60;;
26936;SDS011;14495;48.116;11.676;2022-10-17T07:01:00;4.25;;;2.22;;
26936;SDS011;14495;48.116;11.676;2022-10-17T07:03:27;3.28;;;1.65;;
26936;SDS011;14495;48.116;11.676;2022-10-17T07:05:53;6.13;;;2.20;;
26936;SDS011;14495;48.116;11.676;2022-10-17T07:08:19;5.72;;;1.77;;
26936;SDS011;14495;48.116;11.676;2022-10-17T07:10:44;4.85;;;2.13;;
26936;SDS011;14495;48.116;11.676;2022-10-17T07:13:09;3.65;;;1.70;;
26936;SDS011;14495;48.116;11.676;2022-10-17T07:15:35;5.40;;;1.77;;
26936;SDS011;14495;48.116;11.676;2022-10-17T07:18:01;2.67;;;1.95;;
26936;SDS011;14495;48.116;11.676;2022-10-17T07:20:27;8.05;;;2.47;;
26936;SDS011;14495;48.116;11.676;2022-10-17T07:22:52;4.22;;;2.42;;
26936;SDS011;14495;48.116;11.676;2022-10-17T07:25:17;3.90;;;2.22;;
26936;SDS011;14495;48.116;11.676;2022-10-17T07:27:43;3.88;;;1.42;;
26936;SDS011;14495;48.116;11.676;2022-10-17T07:30:08;4.30;;;1.75;;
26936;SDS011;14495;48.116;11.676;2022-10-17T07:32:34;3.53;;;2.20;;
26936;SDS011;14495;48.116;11.676;2022-10-17T07:34:59;9.85;;;2.13;;
26936;SDS011;14495;48.116;11.676;2022-10-17T07:37:25;5.07;;;1.80;;
26936;SDS011;14495;48.116;11.676;2022-10-17T07:39:50;5.22;;;2.25;;
26936;SDS011;14495;48.116;11.676;2022-10-17T07:42:15;3.38;;;2.05;;
26936;SDS011;14495;48.116;11.676;2022-10-17T07:44:40;3.17;;;2.00;;
26936;SDS011;14495;48.116;11.676;2022-10-17T07:47:06;5.30;;;2.60;;
26936;SDS011;14495;48.116;11.676;2022-10-17T07:49:31;2.80;;;2.05;;
26936;SDS011;14495;48.116;11.676;2022-10-17T07:51:56;2.47;;;1.60;;
26936;SDS011;14495;48.116;11.676;2022-10-17T07:54:22;4.72;;;2.20;;
26936;SDS011;14495;48.116;11.676;2022-10-17T07:56:47;4.57;;;2.08;;
26936;SDS011;14495;48.116;11.676;2022-10-17T07:59:15;6.10;;;2.08;;
26936;SDS011;14495;48.116;11.676;2022-10-17T08:01:41;3.80;;;2.15;;
26936;SDS011;14495;48.116;11.676;2022-10-17T08:04:07;3.95;;;2.20;;
26936;SDS011;14495;48.116;11.676;2022-10-17T08:06:32;4.88;;;2.05;;
26936;SDS011;14495;48.116;11.676;2022-10-17T08:08:57;3.35;;;1.70;;
26936;SDS011;14495;48.116;11.676;2022-10-17T08:11:23;4.90;;;2.38;;
26936;SDS011;14495;48.116;11.676;2022-10-17T08:13:49;5.60;;;2.45;;
26936;SDS011;14495;48.116;11.676;2022-10-17T08:16:14;2.92;;;1.73;;
26936;SDS011;14495;48.116;11.676;2022-10-17T08:18:41;3.28;;;1.65;;
26936;SDS011;14495;48.116;11.676;2022-10-17T08:21:07;5.95;;;2.22;;
26936;SDS011;14495;48.116;11.676;2022-10-17T08:23:33;6.03;;;2.38;;
26936;SDS011;14495;48.116;11.676;2022-10-17T08:25:59;3.35;;;2.03;;
26936;SDS011;14495;48.116;11.676;2022-10-17T08:28:26;5.95;;;2.22;;
26936;SDS011;14495;48.116;11.676;2022-10-17T08:30:52;5.20;;;2.03;;
26936;SDS011;14495;48.116;11.676;2022-10-17T08:33:17;3.80;;;2.28;;
26936;SDS011;14495;48.116;11.676;2022-10-17T08:35:42;3.28;;;2.00;;
26936;SDS011;14495;48.116;11.676;2022-10-17T08:38:08;5.40;;;2.33;;
26936;SDS011;14495;48.116;11.676;2022-10-17T08:40:33;2.83;;;1.80;;
26936;SDS011;14495;48.116;11.676;2022-10-17T08:46:04;6.05;;;1.83;;
26936;SDS011;14495;48.116;11.676;2022-10-17T08:48:32;3.60;;;1.48;;
26936;SDS011;14495;48.116;11.676;2022-10-17T08:51:09;1.70;;;1.35;;
26936;SDS011;14495;48.116;11.676;2022-10-17T08:53:49;2.95;;;1.90;;
26936;SDS011;14495;48.116;11.676;2022-10-17T08:56:22;6.53;;;1.70;;
26936;SDS011;14495;48.116;11.676;2022-10-17T08:58:49;7.40;;;1.92;;
26936;SDS011;14495;48.116;11.676;2022-10-17T09:06:56;2.00;;;1.50;;
26936;SDS011;14495;48.116;11.676;2022-10-17T09:09:41;4.30;;;1.45;;
26936;SDS011;14495;48.116;11.676;2022-10-17T09:12:13;3.73;;;1.70;;
26936;SDS011;14495;48.116;11.676;2022-10-17T09:14:47;7.88;;;2.42;;
26936;SDS011;14495;48.116;11.676;2022-10-17T09:17:46;6.35;;;1.50;;
26936;SDS011;14495;48.116;11.676;2022-10-17T09:20:21;3.65;;;1.70;;
26936;SDS011;14495;48.116;11.676;2022-10-17T09:22:56;2.85;;;1.40;;
26936;SDS011;14495;48.116;11.676;2022-10-17T09:25:25;3.47;;;1.50;;
26936;SDS011;14495;48.116;11.676;2022-10-17T09:27:53;2.30;;;1.50;;
26936;SDS011;14495;48.116;11.676;2022-10-17T09:30:41;2.50;;;1.70;;
26936;SDS011;14495;48.116;11.676;2022-10-17T09:33:09;4.50;;;2.30;;
26936;SDS011;14495;48.116;11.676;2022-10-17T09:35:39;1.58;;;1.35;;
26936;SDS011;14495;48.116;11.676;2022-10-17T09:38:06;2.15;;;1.50;;
26936;SDS011;14495;48.116;11.676;2022-10-17T09:40:39;2.30;;;1.63;;
26936;SDS011;14495;48.116;11.676;2022-10-17T09:43:05;3.83;;;1.80;;
26936;SDS011;14495;48.116;11.676;2022-10-17T09:45:35;1.67;;;1.30;;
26936;SDS011;14495;48.116;11.676;2022-10-17T09:48:17;2.30;;;1.88;;
26936;SDS011;14495;48.116;11.676;2022-10-17T09:50:45;1.88;;;1.60;;
26936;SDS011;14495;48.116;11.676;2022-10-17T09:53:12;3.25;;;1.95;;
26936;SDS011;14495;48.116;11.676;2022-10-17T09:58:11;4.88;;;2.00;;
26936;SDS011;14495;48.116;11.676;2022-10-17T10:00:41;2.58;;;1.75;;
26936;SDS011;14495;48.116;11.676;2022-10-17T10:03:15;2.65;;;1.92;;
26936;SDS011;14495;48.116;11.676;2022-10-17T10:05:41;1.85;;;1.40;;
26936;SDS011;14495;48.116;11.676;2022-10-17T10:08:21;3.17;;;1.70;;
26936;SDS011;14495;48.116;11.676;2022-10-17T10:10:49;2.40;;;1.60;;
26936;SDS011;14495;48.116;11.676;2022-10-17T10:13:22;3.38;;;1.80;;
26936;SDS011;14495;48.116;11.676;2022-10-17T10:15:50;3.15;;;1.60;;
26936;SDS011;14495;48.116;11.676;2022-10-17T10:23:39;3.75;;;1.50;;
26936;SDS011;14495;48.116;11.676;2022-10-17T10:28:56;3.95;;;1.65;;
26936;SDS011;14495;48.116;11.676;2022-10-17T10:31:48;1.80;;;1.30;;
26936;SDS011;14495;48.116;11.676;2022-10-17T10:39:21;1.90;;;1.40;;
26936;SDS011;14495;48.116;11.676;2022-10-17T10:42:00;1.58;;;1.17;;
26936;SDS011;14495;48.116;11.676;2022-10-17T10:44:28;2.45;;;1.60;;
26936;SDS011;14495;48.116;11.676;2022-10-17T10:47:06;2.15;;;1.23;;
26936;SDS011;14495;48.116;11.676;2022-10-17T10:49:33;2.35;;;1.50;;
26936;SDS011;14495;48.116;11.676;2022-10-17T10:51:58;5.65;;;1.60;;
26936;SDS011;14495;48.116;11.676;2022-10-17T10:54:35;1.50;;;1.30;;
26936;SDS011;14495;48.116;11.676;2022-10-17T10:57:05;1.48;;;1.25;;
26936;SDS011;14495;48.116;11.676;2022-10-17T11:02:38;3.28;;;1.70;;
26936;SDS011;14495;48.116;11.676;2022-10-17T11:05:16;2.63;;;1.42;;
26936;SDS011;14495;48.116;11.676;2022-10-17T11:08:09;2.30;;;1.25;;
26936;SDS011;14495;48.116;11.676;2022-10-17T11:11:18;2.03;;;1.50;;
26936;SDS011;14495;48.116;11.676;2022-10-17T11:16:48;2.13;;;1.40;;
26936;SDS011;14495;48.116;11.676;2022-10-17T11:22:14;3.03;;;1.50;;
26936;SDS011;14495;48.116;11.676;2022-10-17T11:24:49;3.33;;;1.00;;
26936;SDS011;14495;48.116;11.676;2022-10-17T11:27:21;1.85;;;1.02;;
26936;SDS011;14495;48.116;11.676;2022-10-17T11:29:48;3.63;;;1.20;;
26936;SDS011;14495;48.116;11.676;2022-10-17T11:33:00;1.42;;;1.00;;
26936;SDS011;14495;48.116;11.676;2022-10-17T11:35:12;2.67;;;1.00;;
26936;SDS011;14495;48.116;11.676;2022-10-17T11:37:52;1.60;;;1.00;;
26936;SDS011;14495;48.116;11.676;2022-10-17T11:40:28;1.80;;;1.10;;
26936;SDS011;14495;48.116;11.676;2022-10-17T11:42:58;2.78;;;1.20;;
26936;SDS011;14495;48.116;11.676;2022-10-17T11:45:26;2.30;;;1.10;;
26936;SDS011;14495;48.116;11.676;2022-10-17T11:50:30;1.77;;;1.17;;
26936;SDS011;14495;48.116;11.676;2022-10-17T11:52:59;1.33;;;1.23;;
26936;SDS011;14495;48.116;11.676;2022-10-17T11:55:29;2.57;;;1.37;;
26936;SDS011;14495;48.116;11.676;2022-10-17T12:12:23;1.23;;;0.95;;
26936;SDS011;14495;48.116;11.676;2022-10-17T12:14:51;2.50;;;1.25;;
26936;SDS011;14495;48.116;11.676;2022-10-17T12:17:33;1.70;;;1.08;;
26936;SDS011;14495;48.116;11.676;2022-10-17T12:22:49;2.17;;;1.30;;
26936;SDS011;14495;48.116;11.676;2022-10-17T12:26:03;1.83;;;1.35;;
26936;SDS011;14495;48.116;11.676;2022-10-17T12:31:07;1.65;;;1.25;;
26936;SDS011;14495;48.116;11.676;2022-10-17T12:52:04;1.90;;;1.30;;
26936;SDS011;14495;48.116;11.676;2022-10-17T12:54:30;1.75;;;1.10;;
26936;SDS011;14495;48.116;11.676;2022-10-17T12:57:01;1.35;;;1.10;;
26936;SDS011;14495;48.116;11.676;2022-10-17T12:59:27;1.23;;;1.08;;
26936;SDS011;14495;48.116;11.676;2022-10-17T13:01:56;1.98;;;1.20;;
26936;SDS011;14495;48.116;11.676;2022-10-17T13:04:24;4.00;;;1.17;;
26936;SDS011;14495;48.116;11.676;2022-10-17T13:06:53;1.85;;;1.10;;
26936;SDS011;14495;48.116;11.676;2022-10-17T13:09:30;1.83;;;1.20;;
26936;SDS011;14495;48.116;11.676;2022-10-17T13:12:01;1.67;;;1.15;;
26936;SDS011;14495;48.116;11.676;2022-10-17T13:14:30;1.50;;;1.20;;
26936;SDS011;14495;48.116;11.676;2022-10-17T13:16:58;1.45;;;1.02;;
26936;SDS011;14495;48.116;11.676;2022-10-17T13:19:28;1.40;;;1.13;;
26936;SDS011;14495;48.116;11.676;2022-10-17T13:21:56;2.10;;;1.50;;
26936;SDS011;14495;48.116;11.676;2022-10-17T13:26:59;2.30;;;1.30;;
26936;SDS011;14495;48.116;11.676;2022-10-17T13:29:26;2.22;;;1.00;;
26936;SDS011;14495;48.116;11.676;2022-10-17T13:31:59;3.08;;;1.08;;
26936;SDS011;14495;48.116;11.676;2022-10-17T13:34:28;2.88;;;1.20;;
26936;SDS011;14495;48.116;11.676;2022-10-17T13:36:55;2.20;;;1.30;;
26936;SDS011;14495;48.116;11.676;2022-10-17T13:39:23;2.97;;;1.08;;
26936;SDS011;14495;48.116;11.676;2022-10-17T13:41:51;1.98;;;1.10;;
26936;SDS011;14495;48.116;11.676;2022-10-17T13:44:20;1.92;;;1.20;;
26936;SDS011;14495;48.116;11.676;2022-10-17T13:46:48;1.55;;;0.98;;
26936;SDS011;14495;48.116;11.676;2022-10-17T13:49:22;1.80;;;1.20;;
26936;SDS011;14495;48.116;11.676;2022-10-17T13:51:51;1.40;;;1.00;;
26936;SDS011;14495;48.116;11.676;2022-10-17T13:54:23;2.35;;;1.20;;
26936;SDS011;14495;48.116;11.676;2022-10-17T13:56:57;1.40;;;1.10;;
26936;SDS011;14495;48.116;11.676;2022-10-17T13:59:24;1.45;;;0.98;;
26936;SDS011;14495;48.116;11.676;2022-10-17T14:01:54;2.03;;;1.20;;
26936;SDS011;14495;48.116;11.676;2022-10-17T14:04:20;1.27;;;1.10;;
26936;SDS011;14495;48.116;11.676;2022-10-17T14:06:46;1.23;;;0.95;;
26936;SDS011;14495;48.116;11.676;2022-10-17T14:09:17;1.67;;;1.15;;
26936;SDS011;14495;48.116;11.676;2022-10-17T14:11:55;3.33;;;1.00;;
26936;SDS011;14495;48.116;11.676;2022-10-17T14:14:25;1.15;;;0.90;;
26936;SDS011;14495;48.116;11.676;2022-10-17T14:16:52;1.73;;;1.13;;
26936;SDS011;14495;48.116;11.676;2022-10-17T14:19:25;1.00;;;0.90;;
26936;SDS011;14495;48.116;11.676;2022-10-17T14:21:54;6.55;;;1.25;;
26936;SDS011;14495;48.116;11.676;2022-10-17T14:26:56;7.32;;;0.98;;
26936;SDS011;14495;48.116;11.676;2022-10-17T14:29:30;2.63;;;1.20;;
26936;SDS011;14495;48.116;11.676;2022-10-17T14:32:13;2.17;;;1.08;;
26936;SDS011;14495;48.116;11.676;2022-10-17T14:34:41;3.00;;;1.00;;
26936;SDS011;14495;48.116;11.676;2022-10-17T14:37:10;1.55;;;1.10;;
26936;SDS011;14495;48.116;11.676;2022-10-17T14:39:49;1.90;;;1.20;;
26936;SDS011;14495;48.116;11.676;2022-10-17T14:42:19;2.28;;;1.20;;
26936;SDS011;14495;48.116;11.676;2022-10-17T14:44:47;3.20;;;1.15;;
26936;SDS011;14495;48.116;11.676;2022-10-17T14:47:16;2.20;;;1.17;;
26936;SDS011;14495;48.116;11.676;2022-10-17T14:49:47;2.63;;;1.38;;
26936;SDS011;14495;48.116;11.676;2022-10-17T14:54:38;1.93;;;1.27;;
26936;SDS011;14495;48.116;11.676;2022-10-17T14:57:12;5.05;;;1.83;;
26936;SDS011;14495;48.116;11.676;2022-10-17T14:59:47;1.92;;;1.20;;
26936;SDS011;14495;48.116;11.676;2022-10-17T15:02:13;3.53;;;1.75;;
26936;SDS011;14495;48.116;11.676;2022-10-17T15:04:38;2.63;;;1.13;;
26936;SDS011;14495;48.116;11.676;2022-10-17T15:07:04;2.58;;;1.20;;
26936;SDS011;14495;48.116;11.676;2022-10-17T15:09:29;1.88;;;1.20;;
26936;SDS011;14495;48.116;11.676;2022-10-17T15:11:57;2.33;;;1.60;;
26936;SDS011;14495;48.116;11.676;2022-10-17T15:14:25;2.47;;;1.20;;
26936;SDS011;14495;48.116;11.676;2022-10-17T15:16:51;3.17;;;1.52;;
26936;SDS011;14495;48.116;11.676;2022-10-17T15:19:16;2.03;;;1.38;;
26936;SDS011;14495;48.116;11.676;2022-10-17T15:21:41;1.58;;;1.17;;
26936;SDS011;14495;48.116;11.676;2022-10-17T15:24:06;2.42;;;1.30;;
26936;SDS011;14495;48.116;11.676;2022-10-17T15:26:32;3.42;;;1.48;;
26936;SDS011;14495;48.116;11.676;2022-10-17T15:28:58;2.00;;;1.42;;
26936;SDS011;14495;48.116;11.676;2022-10-17T15:31:24;3.50;;;1.40;;
26936;SDS011;14495;48.116;11.676;2022-10-17T15:33:51;2.05;;;1.42;;
26936;SDS011;14495;48.116;11.676;2022-10-17T15:38:54;2.28;;;1.27;;
26936;SDS011;14495;48.116;11.676;2022-10-17T15:41:24;4.53;;;1.30;;
26936;SDS011;14495;48.116;11.676;2022-10-17T15:43:51;2.35;;;1.38;;
26936;SDS011;14495;48.116;11.676;2022-10-17T15:46:18;3.50;;;1.40;;
26936;SDS011;14495;48.116;11.676;2022-10-17T15:48:50;3.00;;;1.30;;
26936;SDS011;14495;48.116;11.676;2022-10-17T15:51:17;2.15;;;1.40;;
26936;SDS011;14495;48.116;11.676;2022-10-17T15:53:42;2.10;;;1.52;;
26936;SDS011;14495;48.116;11.676;2022-10-17T15:56:14;1.83;;;1.30;;
26936;SDS011;14495;48.116;11.676;2022-10-17T15:58:45;5.65;;;1.60;;
26936;SDS011;14495;48.116;11.676;2022-10-17T16:01:17;4.47;;;2.15;;
26936;SDS011;14495;48.116;11.676;2022-10-17T16:03:46;1.90;;;1.33;;
26936;SDS011;14495;48.116;11.676;2022-10-17T16:06:14;3.60;;;2.30;;
26936;SDS011;14495;48.116;11.676;2022-10-17T16:08:39;5.43;;;2.10;;
26936;SDS011;14495;48.116;11.676;2022-10-17T16:11:05;4.57;;;2.35;;
26936;SDS011;14495;48.116;11.676;2022-10-17T16:13:30;7.10;;;2.10;;
26936;SDS011;14495;48.116;11.676;2022-10-17T16:15:56;5.55;;;2.08;;
26936;SDS011;14495;48.116;11.676;2022-10-17T16:18:21;7.10;;;2.08;;
26936;SDS011;14495;48.116;11.676;2022-10-17T16:20:46;11.77;;;2.83;;
26936;SDS011;14495;48.116;11.676;2022-10-17T16:23:12;3.22;;;2.35;;
26936;SDS011;14495;48.116;11.676;2022-10-17T16:25:38;5.13;;;2.67;;
26936;SDS011;14495;48.116;11.676;2022-10-17T16:28:04;5.22;;;2.60;;
26936;SDS011;14495;48.116;11.676;2022-10-17T16:30:32;4.32;;;2.30;;
26936;SDS011;14495;48.116;11.676;2022-10-17T16:33:06;5.10;;;2.15;;
26936;SDS011;14495;48.116;11.676;2022-10-17T16:35:32;5.40;;;2.38;;
26936;SDS011;14495;48.116;11.676;2022-10-17T16:37:57;6.82;;;2.63;;
26936;SDS011;14495;48.116;11.676;2022-10-17T16:40:23;4.80;;;2.47;;
26936;SDS011;14495;48.116;11.676;2022-10-17T16:42:48;3.88;;;2.35;;
26936;SDS011;14495;48.116;11.676;2022-10-17T16:45:18;10.00;;;2.65;;
26936;SDS011;14495;48.116;11.676;2022-10-17T16:47:45;3.60;;;2.53;;
26936;SDS011;14495;48.116;11.676;2022-10-17T16:50:10;4.05;;;2.30;;